sensor_id;sensor_type;location;lat;lon;timestamp;P1;durP1;ratioP1;P2;durP2;ratioP2
21334;SDS011;10826;52.536;13.432;2023-04-06T00:00:31;4.33;;;3.93;;
21334;SDS011;10826;52.536;13.432;2023-04-06T00:03:18;4.10;;;3.80;;
21334;SDS011;10826;52.536;13.432;2023-04-06T00:06:04;6.47;;;4.03;;
21334;SDS011;10826;52.536;13.432;2023-04-06T00:08:50;4.73;;;4.23;;
21334;SDS011;10826;52.536;13.432;2023-04-06T00:11:36;6.40;;;4.00;;
21334;SDS011;10826;52.536;13.432;2023-04-06T00:14:22;4.40;;;4.00;;
21334;SDS011;10826;52.536;13.432;2023-04-06T00:17:08;4.30;;;3.97;;
21334;SDS011;10826;52.536;13.432;2023-04-06T00:19:54;6.00;;;4.70;;
21334;SDS011;10826;52.536;13.432;2023-04-06T00:22:40;7.00;;;4.17;;
21334;SDS011;10826;52.536;13.432;2023-04-06T00:25:26;6.13;;;4.80;;
21334;SDS011;10826;52.536;13.432;2023-04-06T00:28:12;6.10;;;4.63;;
21334;SDS011;10826;52.536;13.432;2023-04-06T00:30:58;5.60;;;4.80;;
21334;SDS011;10826;52.536;13.432;2023-04-06T00:33:44;5.10;;;4.70;;
21334;SDS011;10826;52.536;13.432;2023-04-06T00:36:32;6.17;;;4.70;;
21334;SDS011;10826;52.536;13.432;2023-04-06T00:39:18;7.73;;;5.10;;
21334;SDS011;10826;52.536;13.432;2023-04-06T00:42:09;9.70;;;4.90;;
21334;SDS011;10826;52.536;13.432;2023-04-06T00:45:07;6.13;;;4.77;;
21334;SDS011;10826;52.536;13.432;2023-04-06T00:47:53;8.73;;;5.50;;
21334;SDS011;10826;52.536;13.432;2023-04-06T00:50:39;6.07;;;5.00;;
21334;SDS011;10826;52.536;13.432;2023-04-06T00:53:25;5.50;;;4.80;;
21334;SDS011;10826;52.536;13.432;2023-04-06T00:56:14;5.23;;;4.73;;
21334;SDS011;10826;52.536;13.432;2023-04-06T00:59:00;8.00;;;4.60;;
21334;SDS011;10826;52.536;13.432;2023-04-06T01:01:46;6.13;;;4.50;;
21334;SDS011;10826;52.536;13.432;2023-04-06T01:04:33;5.60;;;4.80;;
21334;SDS011;10826;52.536;13.432;2023-04-06T01:07:19;5.57;;;4.83;;
21334;SDS011;10826;52.536;13.432;2023-04-06T01:10:05;4.60;;;4.20;;
21334;SDS011;10826;52.536;13.432;2023-04-06T01:12:52;5.27;;;4.80;;
21334;SDS011;10826;52.536;13.432;2023-04-06T01:15:38;6.40;;;5.10;;
21334;SDS011;10826;52.536;13.432;2023-04-06T01:18:27;7.60;;;5.30;;
21334;SDS011;10826;52.536;13.432;2023-04-06T01:21:15;7.63;;;4.80;;
21334;SDS011;10826;52.536;13.432;2023-04-06T01:24:01;5.13;;;4.53;;
21334;SDS011;10826;52.536;13.432;2023-04-06T01:26:47;6.20;;;4.33;;
21334;SDS011;10826;52.536;13.432;2023-04-06T01:29:33;7.70;;;5.43;;
21334;SDS011;10826;52.536;13.432;2023-04-06T01:32:19;6.23;;;4.90;;
21334;SDS011;10826;52.536;13.432;2023-04-06T01:35:06;7.37;;;5.50;;
21334;SDS011;10826;52.536;13.432;2023-04-06T01:37:52;5.03;;;4.53;;
21334;SDS011;10826;52.536;13.432;2023-04-06T01:40:38;6.00;;;5.47;;
21334;SDS011;10826;52.536;13.432;2023-04-06T01:43:24;5.40;;;4.80;;
21334;SDS011;10826;52.536;13.432;2023-04-06T01:46:10;5.23;;;4.83;;
21334;SDS011;10826;52.536;13.432;2023-04-06T01:48:56;10.27;;;5.60;;
21334;SDS011;10826;52.536;13.432;2023-04-06T01:51:42;6.43;;;5.00;;
21334;SDS011;10826;52.536;13.432;2023-04-06T01:54:27;7.03;;;5.10;;
21334;SDS011;10826;52.536;13.432;2023-04-06T01:57:13;6.90;;;5.60;;
21334;SDS011;10826;52.536;13.432;2023-04-06T01:59:59;7.10;;;5.80;;
21334;SDS011;10826;52.536;13.432;2023-04-06T02:02:45;9.97;;;6.57;;
21334;SDS011;10826;52.536;13.432;2023-04-06T02:05:33;8.30;;;6.27;;
21334;SDS011;10826;52.536;13.432;2023-04-06T02:08:23;6.97;;;6.30;;
21334;SDS011;10826;52.536;13.432;2023-04-06T02:11:08;9.30;;;6.30;;
21334;SDS011;10826;52.536;13.432;2023-04-06T02:13:55;6.30;;;5.60;;
21334;SDS011;10826;52.536;13.432;2023-04-06T02:16:41;8.10;;;6.60;;
21334;SDS011;10826;52.536;13.432;2023-04-06T02:19:27;5.83;;;5.27;;
21334;SDS011;10826;52.536;13.432;2023-04-06T02:22:13;6.67;;;6.07;;
21334;SDS011;10826;52.536;13.432;2023-04-06T02:24:59;6.57;;;5.97;;
21334;SDS011;10826;52.536;13.432;2023-04-06T02:27:45;6.80;;;6.20;;
21334;SDS011;10826;52.536;13.432;2023-04-06T02:30:31;8.10;;;5.77;;
21334;SDS011;10826;52.536;13.432;2023-04-06T02:33:19;13.83;;;5.73;;
21334;SDS011;10826;52.536;13.432;2023-04-06T02:36:06;6.67;;;6.03;;
21334;SDS011;10826;52.536;13.432;2023-04-06T02:38:52;7.70;;;6.47;;
21334;SDS011;10826;52.536;13.432;2023-04-06T02:41:40;9.90;;;6.67;;
21334;SDS011;10826;52.536;13.432;2023-04-06T02:44:26;6.53;;;5.67;;
21334;SDS011;10826;52.536;13.432;2023-04-06T02:47:12;8.40;;;6.87;;
21334;SDS011;10826;52.536;13.432;2023-04-06T02:49:58;7.00;;;6.40;;
21334;SDS011;10826;52.536;13.432;2023-04-06T02:52:43;8.60;;;7.27;;
21334;SDS011;10826;52.536;13.432;2023-04-06T02:55:29;7.80;;;7.03;;
21334;SDS011;10826;52.536;13.432;2023-04-06T02:58:15;11.20;;;7.57;;
21334;SDS011;10826;52.536;13.432;2023-04-06T03:01:03;8.07;;;7.27;;
21334;SDS011;10826;52.536;13.432;2023-04-06T03:03:49;8.73;;;7.43;;
21334;SDS011;10826;52.536;13.432;2023-04-06T03:06:36;11.60;;;7.80;;
21334;SDS011;10826;52.536;13.432;2023-04-06T03:09:22;9.23;;;7.00;;
21334;SDS011;10826;52.536;13.432;2023-04-06T03:12:08;9.97;;;7.30;;
21334;SDS011;10826;52.536;13.432;2023-04-06T03:14:54;14.77;;;7.70;;
21334;SDS011;10826;52.536;13.432;2023-04-06T03:17:42;7.73;;;6.93;;
21334;SDS011;10826;52.536;13.432;2023-04-06T03:20:28;10.33;;;7.53;;
21334;SDS011;10826;52.536;13.432;2023-04-06T03:23:15;12.07;;;7.80;;
21334;SDS011;10826;52.536;13.432;2023-04-06T03:26:01;9.77;;;7.30;;
21334;SDS011;10826;52.536;13.432;2023-04-06T03:28:48;10.03;;;7.20;;
21334;SDS011;10826;52.536;13.432;2023-04-06T03:31:33;9.17;;;7.93;;
21334;SDS011;10826;52.536;13.432;2023-04-06T03:34:19;10.83;;;8.07;;
21334;SDS011;10826;52.536;13.432;2023-04-06T03:37:05;13.53;;;7.80;;
21334;SDS011;10826;52.536;13.432;2023-04-06T03:39:51;8.57;;;7.67;;
21334;SDS011;10826;52.536;13.432;2023-04-06T03:42:37;10.60;;;8.30;;
21334;SDS011;10826;52.536;13.432;2023-04-06T03:45:23;11.20;;;8.30;;
21334;SDS011;10826;52.536;13.432;2023-04-06T03:48:09;11.60;;;8.60;;
21334;SDS011;10826;52.536;13.432;2023-04-06T03:50:55;11.20;;;7.87;;
21334;SDS011;10826;52.536;13.432;2023-04-06T03:53:41;12.97;;;8.00;;
21334;SDS011;10826;52.536;13.432;2023-04-06T03:56:27;9.17;;;8.07;;
21334;SDS011;10826;52.536;13.432;2023-04-06T03:59:13;9.37;;;8.40;;
21334;SDS011;10826;52.536;13.432;2023-04-06T04:02:06;9.97;;;7.70;;
21334;SDS011;10826;52.536;13.432;2023-04-06T04:04:52;11.30;;;8.73;;
21334;SDS011;10826;52.536;13.432;2023-04-06T04:07:42;12.27;;;8.43;;
21334;SDS011;10826;52.536;13.432;2023-04-06T04:10:28;8.93;;;8.03;;
21334;SDS011;10826;52.536;13.432;2023-04-06T04:13:14;11.10;;;7.93;;
21334;SDS011;10826;52.536;13.432;2023-04-06T04:16:00;10.97;;;7.57;;
21334;SDS011;10826;52.536;13.432;2023-04-06T04:18:46;10.13;;;8.07;;
21334;SDS011;10826;52.536;13.432;2023-04-06T04:21:42;10.83;;;8.23;;
21334;SDS011;10826;52.536;13.432;2023-04-06T04:24:30;11.67;;;8.27;;
21334;SDS011;10826;52.536;13.432;2023-04-06T04:27:19;10.40;;;8.17;;
21334;SDS011;10826;52.536;13.432;2023-04-06T04:30:05;11.07;;;8.17;;
21334;SDS011;10826;52.536;13.432;2023-04-06T04:32:52;13.80;;;8.53;;
21334;SDS011;10826;52.536;13.432;2023-04-06T04:35:38;10.73;;;8.43;;
21334;SDS011;10826;52.536;13.432;2023-04-06T04:38:24;8.50;;;7.63;;
21334;SDS011;10826;52.536;13.432;2023-04-06T04:41:13;16.10;;;9.00;;
21334;SDS011;10826;52.536;13.432;2023-04-06T04:44:00;11.10;;;8.30;;
21334;SDS011;10826;52.536;13.432;2023-04-06T04:46:46;11.40;;;8.90;;
21334;SDS011;10826;52.536;13.432;2023-04-06T04:49:32;13.23;;;8.73;;
21334;SDS011;10826;52.536;13.432;2023-04-06T04:52:17;12.10;;;8.67;;
21334;SDS011;10826;52.536;13.432;2023-04-06T04:55:04;14.60;;;8.90;;
21334;SDS011;10826;52.536;13.432;2023-04-06T04:58:08;12.67;;;7.97;;
21334;SDS011;10826;52.536;13.432;2023-04-06T05:00:56;16.43;;;9.50;;
21334;SDS011;10826;52.536;13.432;2023-04-06T05:03:42;13.80;;;9.37;;
21334;SDS011;10826;52.536;13.432;2023-04-06T05:06:27;16.47;;;9.87;;
21334;SDS011;10826;52.536;13.432;2023-04-06T05:09:13;14.87;;;9.87;;
21334;SDS011;10826;52.536;13.432;2023-04-06T05:11:59;15.93;;;9.33;;
21334;SDS011;10826;52.536;13.432;2023-04-06T05:14:46;12.07;;;9.77;;
21334;SDS011;10826;52.536;13.432;2023-04-06T05:17:33;15.73;;;10.47;;
21334;SDS011;10826;52.536;13.432;2023-04-06T05:20:19;12.93;;;10.30;;
21334;SDS011;10826;52.536;13.432;2023-04-06T05:23:08;18.43;;;10.27;;
21334;SDS011;10826;52.536;13.432;2023-04-06T05:25:54;16.27;;;10.73;;
21334;SDS011;10826;52.536;13.432;2023-04-06T05:28:40;12.83;;;9.80;;
21334;SDS011;10826;52.536;13.432;2023-04-06T05:31:27;14.47;;;10.73;;
21334;SDS011;10826;52.536;13.432;2023-04-06T05:34:14;14.37;;;9.63;;
21334;SDS011;10826;52.536;13.432;2023-04-06T05:37:01;13.93;;;10.70;;
21334;SDS011;10826;52.536;13.432;2023-04-06T05:39:47;17.73;;;11.23;;
21334;SDS011;10826;52.536;13.432;2023-04-06T05:42:42;18.67;;;11.17;;
21334;SDS011;10826;52.536;13.432;2023-04-06T05:45:28;16.53;;;11.33;;
21334;SDS011;10826;52.536;13.432;2023-04-06T05:48:15;21.87;;;11.93;;
21334;SDS011;10826;52.536;13.432;2023-04-06T05:51:03;16.13;;;11.10;;
21334;SDS011;10826;52.536;13.432;2023-04-06T05:53:51;15.90;;;11.43;;
21334;SDS011;10826;52.536;13.432;2023-04-06T05:56:37;15.83;;;11.70;;
21334;SDS011;10826;52.536;13.432;2023-04-06T05:59:23;14.60;;;10.30;;
21334;SDS011;10826;52.536;13.432;2023-04-06T06:02:09;11.83;;;9.57;;
21334;SDS011;10826;52.536;13.432;2023-04-06T06:04:55;13.70;;;9.17;;
21334;SDS011;10826;52.536;13.432;2023-04-06T06:07:41;8.47;;;7.60;;
21334;SDS011;10826;52.536;13.432;2023-04-06T06:10:27;7.80;;;7.10;;
21334;SDS011;10826;52.536;13.432;2023-04-06T06:13:13;7.07;;;6.47;;
21334;SDS011;10826;52.536;13.432;2023-04-06T06:15:59;7.43;;;5.70;;
21334;SDS011;10826;52.536;13.432;2023-04-06T06:18:50;5.57;;;4.90;;
21334;SDS011;10826;52.536;13.432;2023-04-06T06:21:36;7.27;;;4.77;;
21334;SDS011;10826;52.536;13.432;2023-04-06T06:24:22;6.50;;;4.70;;
21334;SDS011;10826;52.536;13.432;2023-04-06T06:27:15;9.97;;;5.07;;
21334;SDS011;10826;52.536;13.432;2023-04-06T06:30:02;5.83;;;4.40;;
21334;SDS011;10826;52.536;13.432;2023-04-06T06:32:49;5.57;;;4.40;;
21334;SDS011;10826;52.536;13.432;2023-04-06T06:35:37;7.03;;;4.53;;
21334;SDS011;10826;52.536;13.432;2023-04-06T06:38:26;5.20;;;4.60;;
21334;SDS011;10826;52.536;13.432;2023-04-06T06:41:12;4.57;;;4.17;;
21334;SDS011;10826;52.536;13.432;2023-04-06T06:43:58;5.13;;;4.63;;
21334;SDS011;10826;52.536;13.432;2023-04-06T06:46:45;4.70;;;4.20;;
21334;SDS011;10826;52.536;13.432;2023-04-06T06:49:31;5.67;;;4.50;;
21334;SDS011;10826;52.536;13.432;2023-04-06T06:52:17;5.97;;;4.23;;
21334;SDS011;10826;52.536;13.432;2023-04-06T06:55:03;4.83;;;4.43;;
21334;SDS011;10826;52.536;13.432;2023-04-06T06:57:49;5.03;;;4.10;;
21334;SDS011;10826;52.536;13.432;2023-04-06T07:00:35;5.63;;;4.00;;
21334;SDS011;10826;52.536;13.432;2023-04-06T07:03:21;4.30;;;3.90;;
21334;SDS011;10826;52.536;13.432;2023-04-06T07:06:07;5.33;;;4.50;;
21334;SDS011;10826;52.536;13.432;2023-04-06T07:08:53;7.87;;;4.50;;
21334;SDS011;10826;52.536;13.432;2023-04-06T07:11:39;5.50;;;5.07;;
21334;SDS011;10826;52.536;13.432;2023-04-06T07:14:25;5.77;;;4.50;;
21334;SDS011;10826;52.536;13.432;2023-04-06T07:17:11;5.57;;;4.13;;
21334;SDS011;10826;52.536;13.432;2023-04-06T07:20:00;4.70;;;3.97;;
21334;SDS011;10826;52.536;13.432;2023-04-06T07:22:46;4.73;;;4.33;;
21334;SDS011;10826;52.536;13.432;2023-04-06T07:25:33;5.13;;;4.60;;
21334;SDS011;10826;52.536;13.432;2023-04-06T07:28:19;7.73;;;4.37;;
21334;SDS011;10826;52.536;13.432;2023-04-06T07:31:05;5.90;;;4.10;;
21334;SDS011;10826;52.536;13.432;2023-04-06T07:33:51;9.53;;;4.53;;
21334;SDS011;10826;52.536;13.432;2023-04-06T07:36:37;7.30;;;4.07;;
21334;SDS011;10826;52.536;13.432;2023-04-06T07:39:23;5.17;;;4.67;;
21334;SDS011;10826;52.536;13.432;2023-04-06T07:42:11;3.80;;;3.50;;
21334;SDS011;10826;52.536;13.432;2023-04-06T07:44:57;4.10;;;3.80;;
21334;SDS011;10826;52.536;13.432;2023-04-06T07:47:43;7.03;;;3.70;;
21334;SDS011;10826;52.536;13.432;2023-04-06T07:50:29;6.13;;;4.60;;
21334;SDS011;10826;52.536;13.432;2023-04-06T07:53:15;3.83;;;3.53;;
21334;SDS011;10826;52.536;13.432;2023-04-06T07:56:01;6.43;;;3.70;;
21334;SDS011;10826;52.536;13.432;2023-04-06T07:58:47;4.40;;;4.00;;
21334;SDS011;10826;52.536;13.432;2023-04-06T08:01:33;5.03;;;3.70;;
21334;SDS011;10826;52.536;13.432;2023-04-06T08:04:19;7.83;;;3.70;;
21334;SDS011;10826;52.536;13.432;2023-04-06T08:07:05;5.37;;;3.73;;
21334;SDS011;10826;52.536;13.432;2023-04-06T08:09:52;4.03;;;3.63;;
21334;SDS011;10826;52.536;13.432;2023-04-06T08:12:37;4.73;;;3.80;;
21334;SDS011;10826;52.536;13.432;2023-04-06T08:15:23;3.03;;;2.83;;
21334;SDS011;10826;52.536;13.432;2023-04-06T08:18:10;3.37;;;2.97;;
21334;SDS011;10826;52.536;13.432;2023-04-06T08:20:56;3.20;;;2.93;;
21334;SDS011;10826;52.536;13.432;2023-04-06T08:23:42;2.83;;;2.63;;
21334;SDS011;10826;52.536;13.432;2023-04-06T08:26:28;3.93;;;3.23;;
21334;SDS011;10826;52.536;13.432;2023-04-06T08:29:24;2.73;;;2.53;;
21334;SDS011;10826;52.536;13.432;2023-04-06T08:32:10;2.90;;;2.70;;
21334;SDS011;10826;52.536;13.432;2023-04-06T08:34:56;3.00;;;2.63;;
21334;SDS011;10826;52.536;13.432;2023-04-06T08:37:42;3.50;;;2.70;;
21334;SDS011;10826;52.536;13.432;2023-04-06T08:40:29;2.47;;;2.27;;
21334;SDS011;10826;52.536;13.432;2023-04-06T08:43:20;4.13;;;2.77;;
21334;SDS011;10826;52.536;13.432;2023-04-06T08:46:08;3.13;;;2.40;;
21334;SDS011;10826;52.536;13.432;2023-04-06T08:48:57;4.27;;;2.63;;
21334;SDS011;10826;52.536;13.432;2023-04-06T08:51:45;2.70;;;2.50;;
21334;SDS011;10826;52.536;13.432;2023-04-06T08:54:34;2.53;;;2.43;;
21334;SDS011;10826;52.536;13.432;2023-04-06T08:57:20;2.93;;;2.63;;
21334;SDS011;10826;52.536;13.432;2023-04-06T09:00:07;4.73;;;2.50;;
21334;SDS011;10826;52.536;13.432;2023-04-06T09:02:55;3.60;;;2.73;;
21334;SDS011;10826;52.536;13.432;2023-04-06T09:05:43;3.80;;;3.07;;
21334;SDS011;10826;52.536;13.432;2023-04-06T09:08:32;2.43;;;2.23;;
21334;SDS011;10826;52.536;13.432;2023-04-06T09:11:19;3.03;;;2.80;;
21334;SDS011;10826;52.536;13.432;2023-04-06T09:14:06;4.27;;;3.00;;
21334;SDS011;10826;52.536;13.432;2023-04-06T09:16:52;3.03;;;2.77;;
21334;SDS011;10826;52.536;13.432;2023-04-06T09:19:47;4.10;;;2.43;;
21334;SDS011;10826;52.536;13.432;2023-04-06T09:22:37;2.70;;;2.30;;
21334;SDS011;10826;52.536;13.432;2023-04-06T09:25:29;3.40;;;2.70;;
21334;SDS011;10826;52.536;13.432;2023-04-06T09:28:16;2.47;;;2.37;;
21334;SDS011;10826;52.536;13.432;2023-04-06T09:31:05;2.80;;;2.60;;
21334;SDS011;10826;52.536;13.432;2023-04-06T09:33:52;2.77;;;2.57;;
21334;SDS011;10826;52.536;13.432;2023-04-06T09:36:39;2.60;;;2.40;;
21334;SDS011;10826;52.536;13.432;2023-04-06T09:39:28;2.73;;;2.53;;
21334;SDS011;10826;52.536;13.432;2023-04-06T09:42:23;2.90;;;2.20;;
21334;SDS011;10826;52.536;13.432;2023-04-06T09:45:13;3.40;;;2.20;;
21334;SDS011;10826;52.536;13.432;2023-04-06T09:47:59;5.70;;;2.50;;
21334;SDS011;10826;52.536;13.432;2023-04-06T09:50:46;3.43;;;2.90;;
21334;SDS011;10826;52.536;13.432;2023-04-06T09:53:36;5.00;;;3.03;;
21334;SDS011;10826;52.536;13.432;2023-04-06T09:56:28;4.07;;;2.90;;
21334;SDS011;10826;52.536;13.432;2023-04-06T10:03:08;6.43;;;3.07;;
21334;SDS011;10826;52.536;13.432;2023-04-06T10:06:26;3.93;;;2.63;;
21334;SDS011;10826;52.536;13.432;2023-04-06T10:09:18;2.70;;;2.50;;
21334;SDS011;10826;52.536;13.432;2023-04-06T10:12:19;2.60;;;2.40;;
21334;SDS011;10826;52.536;13.432;2023-04-06T10:15:06;3.60;;;2.33;;
21334;SDS011;10826;52.536;13.432;2023-04-06T10:17:53;2.43;;;2.23;;
21334;SDS011;10826;52.536;13.432;2023-04-06T10:20:44;2.13;;;1.93;;
21334;SDS011;10826;52.536;13.432;2023-04-06T10:23:48;2.23;;;2.03;;
21334;SDS011;10826;52.536;13.432;2023-04-06T10:26:39;2.10;;;2.00;;
21334;SDS011;10826;52.536;13.432;2023-04-06T10:29:25;2.30;;;2.10;;
21334;SDS011;10826;52.536;13.432;2023-04-06T10:32:14;2.13;;;1.97;;
21334;SDS011;10826;52.536;13.432;2023-04-06T10:35:07;2.10;;;2.00;;
21334;SDS011;10826;52.536;13.432;2023-04-06T10:38:04;2.40;;;2.20;;
21334;SDS011;10826;52.536;13.432;2023-04-06T10:40:53;2.63;;;2.30;;
21334;SDS011;10826;52.536;13.432;2023-04-06T10:43:57;2.27;;;2.17;;
21334;SDS011;10826;52.536;13.432;2023-04-06T10:46:51;2.43;;;2.00;;
21334;SDS011;10826;52.536;13.432;2023-04-06T10:49:43;3.67;;;2.33;;
21334;SDS011;10826;52.536;13.432;2023-04-06T10:52:29;2.20;;;2.00;;
21334;SDS011;10826;52.536;13.432;2023-04-06T10:55:19;2.67;;;2.47;;
21334;SDS011;10826;52.536;13.432;2023-04-06T10:58:07;3.33;;;1.97;;
21334;SDS011;10826;52.536;13.432;2023-04-06T11:00:53;2.57;;;2.30;;
21334;SDS011;10826;52.536;13.432;2023-04-06T11:03:51;2.50;;;2.30;;
21334;SDS011;10826;52.536;13.432;2023-04-06T11:06:48;2.80;;;2.50;;
21334;SDS011;10826;52.536;13.432;2023-04-06T11:09:35;2.50;;;2.30;;
21334;SDS011;10826;52.536;13.432;2023-04-06T11:12:25;8.13;;;2.70;;
21334;SDS011;10826;52.536;13.432;2023-04-06T11:15:13;5.70;;;2.13;;
21334;SDS011;10826;52.536;13.432;2023-04-06T11:18:02;3.70;;;2.30;;
21334;SDS011;10826;52.536;13.432;2023-04-06T11:20:51;2.33;;;2.13;;
21334;SDS011;10826;52.536;13.432;2023-04-06T11:23:37;2.17;;;1.87;;
21334;SDS011;10826;52.536;13.432;2023-04-06T11:26:29;2.90;;;2.30;;
21334;SDS011;10826;52.536;13.432;2023-04-06T11:29:15;2.70;;;2.17;;
21334;SDS011;10826;52.536;13.432;2023-04-06T11:32:06;2.33;;;2.13;;
21334;SDS011;10826;52.536;13.432;2023-04-06T11:34:57;1.93;;;1.83;;
21334;SDS011;10826;52.536;13.432;2023-04-06T11:37:44;2.40;;;2.20;;
21334;SDS011;10826;52.536;13.432;2023-04-06T11:40:33;4.10;;;2.03;;
21334;SDS011;10826;52.536;13.432;2023-04-06T11:43:25;1.80;;;1.70;;
21334;SDS011;10826;52.536;13.432;2023-04-06T11:46:17;2.43;;;2.23;;
21334;SDS011;10826;52.536;13.432;2023-04-06T11:49:06;2.10;;;2.00;;
21334;SDS011;10826;52.536;13.432;2023-04-06T11:51:52;2.17;;;1.97;;
21334;SDS011;10826;52.536;13.432;2023-04-06T11:54:38;2.10;;;1.90;;
21334;SDS011;10826;52.536;13.432;2023-04-06T11:57:24;2.40;;;2.20;;
21334;SDS011;10826;52.536;13.432;2023-04-06T12:00:10;4.87;;;2.33;;
21334;SDS011;10826;52.536;13.432;2023-04-06T12:02:57;2.63;;;2.33;;
21334;SDS011;10826;52.536;13.432;2023-04-06T12:05:44;2.60;;;2.40;;
21334;SDS011;10826;52.536;13.432;2023-04-06T12:08:30;4.13;;;3.77;;
21334;SDS011;10826;52.536;13.432;2023-04-06T12:11:16;6.77;;;5.97;;
21334;SDS011;10826;52.536;13.432;2023-04-06T12:14:07;7.03;;;6.33;;
21334;SDS011;10826;52.536;13.432;2023-04-06T12:16:52;4.60;;;4.10;;
21334;SDS011;10826;52.536;13.432;2023-04-06T12:19:38;2.67;;;2.47;;
21334;SDS011;10826;52.536;13.432;2023-04-06T12:22:24;2.70;;;2.50;;
21334;SDS011;10826;52.536;13.432;2023-04-06T12:25:13;2.33;;;1.63;;
21334;SDS011;10826;52.536;13.432;2023-04-06T12:27:59;2.40;;;2.20;;
21334;SDS011;10826;52.536;13.432;2023-04-06T12:30:45;2.40;;;2.30;;
21334;SDS011;10826;52.536;13.432;2023-04-06T12:33:31;2.10;;;1.97;;
21334;SDS011;10826;52.536;13.432;2023-04-06T12:36:18;4.43;;;4.03;;
21334;SDS011;10826;52.536;13.432;2023-04-06T12:39:06;2.50;;;2.20;;
21334;SDS011;10826;52.536;13.432;2023-04-06T12:41:52;1.90;;;1.80;;
21334;SDS011;10826;52.536;13.432;2023-04-06T12:44:38;3.50;;;2.30;;
21334;SDS011;10826;52.536;13.432;2023-04-06T12:47:25;3.60;;;2.50;;
21334;SDS011;10826;52.536;13.432;2023-04-06T12:50:11;4.67;;;2.30;;
21334;SDS011;10826;52.536;13.432;2023-04-06T12:53:00;3.00;;;2.37;;
21334;SDS011;10826;52.536;13.432;2023-04-06T12:55:46;2.40;;;2.20;;
21334;SDS011;10826;52.536;13.432;2023-04-06T12:58:39;2.43;;;2.23;;
21334;SDS011;10826;52.536;13.432;2023-04-06T13:01:26;2.80;;;2.30;;
21334;SDS011;10826;52.536;13.432;2023-04-06T13:04:13;2.50;;;2.27;;
21334;SDS011;10826;52.536;13.432;2023-04-06T13:06:59;2.53;;;2.20;;
21334;SDS011;10826;52.536;13.432;2023-04-06T13:09:45;2.17;;;2.07;;
21334;SDS011;10826;52.536;13.432;2023-04-06T13:12:32;2.20;;;1.87;;
21334;SDS011;10826;52.536;13.432;2023-04-06T13:15:18;2.17;;;2.00;;
21334;SDS011;10826;52.536;13.432;2023-04-06T13:18:04;2.37;;;2.20;;
21334;SDS011;10826;52.536;13.432;2023-04-06T13:20:50;3.20;;;2.13;;
21334;SDS011;10826;52.536;13.432;2023-04-06T13:23:37;5.67;;;2.40;;
21334;SDS011;10826;52.536;13.432;2023-04-06T13:26:23;2.10;;;1.97;;
21334;SDS011;10826;52.536;13.432;2023-04-06T13:29:09;2.60;;;2.40;;
21334;SDS011;10826;52.536;13.432;2023-04-06T13:31:55;4.03;;;2.10;;
21334;SDS011;10826;52.536;13.432;2023-04-06T13:34:41;2.00;;;1.90;;
21334;SDS011;10826;52.536;13.432;2023-04-06T13:37:30;1.87;;;1.77;;
21334;SDS011;10826;52.536;13.432;2023-04-06T13:40:21;5.23;;;2.57;;
21334;SDS011;10826;52.536;13.432;2023-04-06T13:43:07;2.20;;;2.00;;
21334;SDS011;10826;52.536;13.432;2023-04-06T13:45:53;2.83;;;2.10;;
21334;SDS011;10826;52.536;13.432;2023-04-06T13:48:41;2.23;;;2.03;;
21334;SDS011;10826;52.536;13.432;2023-04-06T13:51:27;2.03;;;1.93;;
21334;SDS011;10826;52.536;13.432;2023-04-06T13:54:13;2.37;;;2.20;;
21334;SDS011;10826;52.536;13.432;2023-04-06T13:56:59;2.00;;;1.90;;
21334;SDS011;10826;52.536;13.432;2023-04-06T13:59:45;3.03;;;2.23;;
21334;SDS011;10826;52.536;13.432;2023-04-06T14:02:31;2.97;;;2.13;;
21334;SDS011;10826;52.536;13.432;2023-04-06T14:05:17;2.23;;;2.10;;
21334;SDS011;10826;52.536;13.432;2023-04-06T14:08:03;1.80;;;1.70;;
21334;SDS011;10826;52.536;13.432;2023-04-06T14:10:49;4.53;;;1.80;;
21334;SDS011;10826;52.536;13.432;2023-04-06T14:13:35;2.43;;;2.23;;
21334;SDS011;10826;52.536;13.432;2023-04-06T14:16:28;1.83;;;1.70;;
21334;SDS011;10826;52.536;13.432;2023-04-06T14:19:14;1.97;;;1.87;;
21334;SDS011;10826;52.536;13.432;2023-04-06T14:22:06;2.27;;;2.07;;
21334;SDS011;10826;52.536;13.432;2023-04-06T14:24:55;1.73;;;1.50;;
21334;SDS011;10826;52.536;13.432;2023-04-06T14:27:42;2.10;;;1.90;;
21334;SDS011;10826;52.536;13.432;2023-04-06T14:30:32;2.10;;;2.00;;
21334;SDS011;10826;52.536;13.432;2023-04-06T14:33:18;4.43;;;2.10;;
21334;SDS011;10826;52.536;13.432;2023-04-06T14:36:04;2.80;;;2.10;;
21334;SDS011;10826;52.536;13.432;2023-04-06T14:38:51;2.47;;;2.00;;
21334;SDS011;10826;52.536;13.432;2023-04-06T14:41:37;2.50;;;2.30;;
21334;SDS011;10826;52.536;13.432;2023-04-06T14:44:24;1.80;;;1.70;;
21334;SDS011;10826;52.536;13.432;2023-04-06T14:47:10;2.23;;;2.00;;
21334;SDS011;10826;52.536;13.432;2023-04-06T14:49:56;2.37;;;2.07;;
21334;SDS011;10826;52.536;13.432;2023-04-06T14:52:42;2.20;;;2.10;;
21334;SDS011;10826;52.536;13.432;2023-04-06T14:55:31;1.77;;;1.67;;
21334;SDS011;10826;52.536;13.432;2023-04-06T14:58:19;2.57;;;1.90;;
21334;SDS011;10826;52.536;13.432;2023-04-06T15:01:06;3.83;;;2.33;;
21334;SDS011;10826;52.536;13.432;2023-04-06T15:03:53;1.97;;;1.87;;
21334;SDS011;10826;52.536;13.432;2023-04-06T15:06:40;2.27;;;2.07;;
21334;SDS011;10826;52.536;13.432;2023-04-06T15:09:26;2.90;;;2.70;;
21334;SDS011;10826;52.536;13.432;2023-04-06T15:12:13;2.60;;;2.40;;
21334;SDS011;10826;52.536;13.432;2023-04-06T15:15:00;4.90;;;2.27;;
21334;SDS011;10826;52.536;13.432;2023-04-06T15:17:46;5.17;;;2.27;;
21334;SDS011;10826;52.536;13.432;2023-04-06T15:20:35;4.33;;;2.13;;
21334;SDS011;10826;52.536;13.432;2023-04-06T15:23:21;2.10;;;1.97;;
21334;SDS011;10826;52.536;13.432;2023-04-06T15:26:07;3.63;;;2.00;;
21334;SDS011;10826;52.536;13.432;2023-04-06T15:28:53;2.47;;;2.03;;
21334;SDS011;10826;52.536;13.432;2023-04-06T15:31:42;1.80;;;1.70;;
21334;SDS011;10826;52.536;13.432;2023-04-06T15:34:31;2.23;;;2.03;;
21334;SDS011;10826;52.536;13.432;2023-04-06T15:37:25;2.50;;;2.30;;
21334;SDS011;10826;52.536;13.432;2023-04-06T15:40:15;1.93;;;1.83;;
21334;SDS011;10826;52.536;13.432;2023-04-06T15:43:01;2.70;;;2.20;;
21334;SDS011;10826;52.536;13.432;2023-04-06T15:45:47;2.93;;;2.37;;
21334;SDS011;10826;52.536;13.432;2023-04-06T15:48:33;2.00;;;1.90;;
21334;SDS011;10826;52.536;13.432;2023-04-06T15:51:19;2.73;;;2.17;;
21334;SDS011;10826;52.536;13.432;2023-04-06T15:54:05;2.67;;;2.17;;
21334;SDS011;10826;52.536;13.432;2023-04-06T15:56:52;2.70;;;2.47;;
21334;SDS011;10826;52.536;13.432;2023-04-06T15:59:38;2.03;;;1.93;;
21334;SDS011;10826;52.536;13.432;2023-04-06T16:02:26;2.40;;;2.20;;
21334;SDS011;10826;52.536;13.432;2023-04-06T16:05:13;2.03;;;1.90;;
21334;SDS011;10826;52.536;13.432;2023-04-06T16:08:01;3.97;;;2.10;;
21334;SDS011;10826;52.536;13.432;2023-04-06T16:10:46;2.10;;;2.00;;
21334;SDS011;10826;52.536;13.432;2023-04-06T16:13:34;2.37;;;2.17;;
21334;SDS011;10826;52.536;13.432;2023-04-06T16:16:21;2.40;;;2.20;;
21334;SDS011;10826;52.536;13.432;2023-04-06T16:19:07;2.30;;;2.20;;
21334;SDS011;10826;52.536;13.432;2023-04-06T16:21:53;2.90;;;2.00;;
21334;SDS011;10826;52.536;13.432;2023-04-06T16:24:39;3.03;;;2.27;;
21334;SDS011;10826;52.536;13.432;2023-04-06T16:27:26;3.93;;;2.13;;
21334;SDS011;10826;52.536;13.432;2023-04-06T16:30:14;2.80;;;2.17;;
21334;SDS011;10826;52.536;13.432;2023-04-06T16:33:00;2.60;;;2.40;;